sensor_id;sensor_type;location;lat;lon;timestamp;P1;durP1;ratioP1;P2;durP2;ratioP2
19149;SDS011;9707;49.158;8.632;2023-12-28T00:00:23;6.93;;;5.13;;
19149;SDS011;9707;49.158;8.632;2023-12-28T00:02:48;5.45;;;4.85;;
19149;SDS011;9707;49.158;8.632;2023-12-28T00:05:14;8.63;;;5.82;;
19149;SDS011;9707;49.158;8.632;2023-12-28T00:07:39;6.25;;;4.80;;
19149;SDS011;9707;49.158;8.632;2023-12-28T00:10:05;7.25;;;5.00;;
19149;SDS011;9707;49.158;8.632;2023-12-28T00:12:30;7.32;;;4.68;;
19149;SDS011;9707;49.158;8.632;2023-12-28T00:14:56;8.32;;;5.10;;
19149;SDS011;9707;49.158;8.632;2023-12-28T00:17:21;6.20;;;4.22;;
19149;SDS011;9707;49.158;8.632;2023-12-28T00:19:46;7.15;;;4.55;;
19149;SDS011;9707;49.158;8.632;2023-12-28T00:22:12;7.10;;;5.38;;
19149;SDS011;9707;49.158;8.632;2023-12-28T00:24:37;7.15;;;5.07;;
19149;SDS011;9707;49.158;8.632;2023-12-28T00:27:02;6.47;;;4.70;;
19149;SDS011;9707;49.158;8.632;2023-12-28T00:29:28;6.70;;;5.35;;
19149;SDS011;9707;49.158;8.632;2023-12-28T00:31:54;6.68;;;4.75;;
19149;SDS011;9707;49.158;8.632;2023-12-28T00:34:19;6.05;;;5.18;;
19149;SDS011;9707;49.158;8.632;2023-12-28T00:36:45;5.75;;;4.85;;
19149;SDS011;9707;49.158;8.632;2023-12-28T00:39:10;6.72;;;5.32;;
19149;SDS011;9707;49.158;8.632;2023-12-28T00:41:35;6.93;;;5.10;;
19149;SDS011;9707;49.158;8.632;2023-12-28T00:44:01;6.03;;;4.40;;
19149;SDS011;9707;49.158;8.632;2023-12-28T00:46:27;6.38;;;4.95;;
19149;SDS011;9707;49.158;8.632;2023-12-28T00:48:52;6.10;;;4.95;;
19149;SDS011;9707;49.158;8.632;2023-12-28T00:51:18;7.00;;;5.00;;
19149;SDS011;9707;49.158;8.632;2023-12-28T00:53:43;5.55;;;3.50;;
19149;SDS011;9707;49.158;8.632;2023-12-28T00:56:09;8.82;;;5.03;;
19149;SDS011;9707;49.158;8.632;2023-12-28T00:58:35;8.27;;;4.80;;
19149;SDS011;9707;49.158;8.632;2023-12-28T01:01:03;6.65;;;5.00;;
19149;SDS011;9707;49.158;8.632;2023-12-28T01:03:28;7.05;;;4.78;;
19149;SDS011;9707;49.158;8.632;2023-12-28T01:05:54;6.65;;;4.80;;
19149;SDS011;9707;49.158;8.632;2023-12-28T01:08:19;6.68;;;5.10;;
19149;SDS011;9707;49.158;8.632;2023-12-28T01:10:44;7.35;;;4.53;;
19149;SDS011;9707;49.158;8.632;2023-12-28T01:13:09;5.45;;;3.80;;
19149;SDS011;9707;49.158;8.632;2023-12-28T01:15:35;6.53;;;4.80;;
19149;SDS011;9707;49.158;8.632;2023-12-28T01:18:00;4.03;;;3.35;;
19149;SDS011;9707;49.158;8.632;2023-12-28T01:20:25;5.60;;;3.90;;
19149;SDS011;9707;49.158;8.632;2023-12-28T01:22:51;4.95;;;3.25;;
19149;SDS011;9707;49.158;8.632;2023-12-28T01:25:16;4.47;;;3.38;;
19149;SDS011;9707;49.158;8.632;2023-12-28T01:27:41;4.72;;;3.35;;
19149;SDS011;9707;49.158;8.632;2023-12-28T01:30:07;4.50;;;3.90;;
19149;SDS011;9707;49.158;8.632;2023-12-28T01:32:32;4.95;;;3.35;;
19149;SDS011;9707;49.158;8.632;2023-12-28T01:34:58;4.57;;;3.25;;
19149;SDS011;9707;49.158;8.632;2023-12-28T01:37:23;5.70;;;3.22;;
19149;SDS011;9707;49.158;8.632;2023-12-28T01:39:48;4.60;;;3.20;;
19149;SDS011;9707;49.158;8.632;2023-12-28T01:42:13;3.72;;;3.10;;
19149;SDS011;9707;49.158;8.632;2023-12-28T01:44:39;6.63;;;3.80;;
19149;SDS011;9707;49.158;8.632;2023-12-28T01:47:04;4.88;;;2.97;;
19149;SDS011;9707;49.158;8.632;2023-12-28T01:49:30;4.38;;;2.95;;
19149;SDS011;9707;49.158;8.632;2023-12-28T01:51:56;5.28;;;3.13;;
19149;SDS011;9707;49.158;8.632;2023-12-28T01:54:21;4.68;;;3.13;;
19149;SDS011;9707;49.158;8.632;2023-12-28T01:56:47;4.72;;;3.40;;
19149;SDS011;9707;49.158;8.632;2023-12-28T01:59:13;6.45;;;3.58;;
19149;SDS011;9707;49.158;8.632;2023-12-28T02:01:39;5.53;;;2.92;;
19149;SDS011;9707;49.158;8.632;2023-12-28T02:04:04;5.25;;;3.65;;
19149;SDS011;9707;49.158;8.632;2023-12-28T02:06:31;5.05;;;3.53;;
19149;SDS011;9707;49.158;8.632;2023-12-28T02:08:56;5.82;;;3.33;;
19149;SDS011;9707;49.158;8.632;2023-12-28T02:11:21;4.55;;;3.35;;
19149;SDS011;9707;49.158;8.632;2023-12-28T02:13:46;8.43;;;3.50;;
19149;SDS011;9707;49.158;8.632;2023-12-28T02:16:46;6.63;;;3.50;;
19149;SDS011;9707;49.158;8.632;2023-12-28T02:22:13;4.88;;;3.30;;
19149;SDS011;9707;49.158;8.632;2023-12-28T02:27:24;4.40;;;2.88;;
19149;SDS011;9707;49.158;8.632;2023-12-28T02:29:49;5.72;;;3.30;;
19149;SDS011;9707;49.158;8.632;2023-12-28T02:32:15;4.88;;;2.88;;
19149;SDS011;9707;49.158;8.632;2023-12-28T02:34:42;4.57;;;3.20;;
19149;SDS011;9707;49.158;8.632;2023-12-28T02:37:09;5.32;;;3.30;;
19149;SDS011;9707;49.158;8.632;2023-12-28T02:39:37;3.95;;;3.10;;
19149;SDS011;9707;49.158;8.632;2023-12-28T02:42:04;3.88;;;2.85;;
19149;SDS011;9707;49.158;8.632;2023-12-28T02:44:29;3.92;;;2.72;;
19149;SDS011;9707;49.158;8.632;2023-12-28T02:46:54;4.00;;;3.15;;
19149;SDS011;9707;49.158;8.632;2023-12-28T02:49:19;4.53;;;2.75;;
19149;SDS011;9707;49.158;8.632;2023-12-28T02:51:45;4.10;;;2.90;;
19149;SDS011;9707;49.158;8.632;2023-12-28T02:54:10;3.05;;;2.65;;
19149;SDS011;9707;49.158;8.632;2023-12-28T02:56:35;3.05;;;2.58;;
19149;SDS011;9707;49.158;8.632;2023-12-28T02:59:00;3.08;;;2.50;;
19149;SDS011;9707;49.158;8.632;2023-12-28T03:01:26;2.97;;;2.20;;
19149;SDS011;9707;49.158;8.632;2023-12-28T03:03:52;4.63;;;2.40;;
19149;SDS011;9707;49.158;8.632;2023-12-28T03:06:17;4.10;;;2.50;;
19149;SDS011;9707;49.158;8.632;2023-12-28T03:08:42;3.72;;;2.30;;
19149;SDS011;9707;49.158;8.632;2023-12-28T03:11:08;3.55;;;2.65;;
19149;SDS011;9707;49.158;8.632;2023-12-28T03:13:33;2.95;;;2.25;;
19149;SDS011;9707;49.158;8.632;2023-12-28T03:15:58;3.20;;;2.30;;
19149;SDS011;9707;49.158;8.632;2023-12-28T03:18:23;4.03;;;2.20;;
19149;SDS011;9707;49.158;8.632;2023-12-28T03:20:49;3.55;;;2.30;;
19149;SDS011;9707;49.158;8.632;2023-12-28T03:23:14;4.50;;;2.80;;
19149;SDS011;9707;49.158;8.632;2023-12-28T03:25:39;3.45;;;2.47;;
19149;SDS011;9707;49.158;8.632;2023-12-28T03:28:05;3.60;;;2.30;;
19149;SDS011;9707;49.158;8.632;2023-12-28T03:30:30;3.80;;;2.42;;
19149;SDS011;9707;49.158;8.632;2023-12-28T03:32:55;2.78;;;2.08;;
19149;SDS011;9707;49.158;8.632;2023-12-28T03:35:20;2.53;;;2.00;;
19149;SDS011;9707;49.158;8.632;2023-12-28T03:37:46;4.35;;;2.53;;
19149;SDS011;9707;49.158;8.632;2023-12-28T03:40:11;3.90;;;2.35;;
19149;SDS011;9707;49.158;8.632;2023-12-28T03:42:37;3.80;;;2.33;;
19149;SDS011;9707;49.158;8.632;2023-12-28T03:45:03;4.43;;;2.47;;
19149;SDS011;9707;49.158;8.632;2023-12-28T03:47:29;2.83;;;2.22;;
19149;SDS011;9707;49.158;8.632;2023-12-28T03:49:54;3.80;;;2.85;;
19149;SDS011;9707;49.158;8.632;2023-12-28T03:52:21;3.20;;;2.00;;
19149;SDS011;9707;49.158;8.632;2023-12-28T03:54:47;4.05;;;2.38;;
19149;SDS011;9707;49.158;8.632;2023-12-28T03:57:12;3.80;;;2.15;;
19149;SDS011;9707;49.158;8.632;2023-12-28T03:59:39;2.50;;;2.10;;
19149;SDS011;9707;49.158;8.632;2023-12-28T04:02:04;4.05;;;2.65;;
19149;SDS011;9707;49.158;8.632;2023-12-28T04:04:29;4.13;;;2.38;;
19149;SDS011;9707;49.158;8.632;2023-12-28T04:06:54;3.22;;;2.58;;
19149;SDS011;9707;49.158;8.632;2023-12-28T04:09:20;3.38;;;2.50;;
19149;SDS011;9707;49.158;8.632;2023-12-28T04:11:46;4.18;;;2.63;;
19149;SDS011;9707;49.158;8.632;2023-12-28T04:14:11;4.93;;;2.47;;
19149;SDS011;9707;49.158;8.632;2023-12-28T04:16:36;3.67;;;2.40;;
19149;SDS011;9707;49.158;8.632;2023-12-28T04:19:02;3.00;;;2.25;;
19149;SDS011;9707;49.158;8.632;2023-12-28T04:21:27;4.20;;;2.45;;
19149;SDS011;9707;49.158;8.632;2023-12-28T04:23:52;2.78;;;1.90;;
19149;SDS011;9707;49.158;8.632;2023-12-28T04:26:18;3.88;;;2.30;;
19149;SDS011;9707;49.158;8.632;2023-12-28T04:28:45;4.38;;;2.20;;
19149;SDS011;9707;49.158;8.632;2023-12-28T04:31:10;3.45;;;2.03;;
19149;SDS011;9707;49.158;8.632;2023-12-28T04:33:35;4.10;;;2.30;;
19149;SDS011;9707;49.158;8.632;2023-12-28T04:36:03;3.47;;;2.40;;
19149;SDS011;9707;49.158;8.632;2023-12-28T04:38:30;3.55;;;2.40;;
19149;SDS011;9707;49.158;8.632;2023-12-28T04:40:56;3.92;;;2.30;;
19149;SDS011;9707;49.158;8.632;2023-12-28T04:43:21;3.85;;;2.50;;
19149;SDS011;9707;49.158;8.632;2023-12-28T04:45:48;2.30;;;2.00;;
19149;SDS011;9707;49.158;8.632;2023-12-28T04:48:14;2.60;;;1.80;;
19149;SDS011;9707;49.158;8.632;2023-12-28T04:50:39;4.60;;;2.80;;
19149;SDS011;9707;49.158;8.632;2023-12-28T04:53:04;5.60;;;3.10;;
19149;SDS011;9707;49.158;8.632;2023-12-28T04:55:30;3.00;;;2.10;;
19149;SDS011;9707;49.158;8.632;2023-12-28T04:57:55;3.33;;;2.00;;
19149;SDS011;9707;49.158;8.632;2023-12-28T05:00:20;2.83;;;2.20;;
19149;SDS011;9707;49.158;8.632;2023-12-28T05:02:46;4.10;;;2.33;;
19149;SDS011;9707;49.158;8.632;2023-12-28T05:05:11;3.55;;;2.30;;
19149;SDS011;9707;49.158;8.632;2023-12-28T05:07:37;3.72;;;2.20;;
19149;SDS011;9707;49.158;8.632;2023-12-28T05:10:02;3.38;;;1.95;;
19149;SDS011;9707;49.158;8.632;2023-12-28T05:12:28;3.00;;;2.08;;
19149;SDS011;9707;49.158;8.632;2023-12-28T05:14:54;3.15;;;2.50;;
19149;SDS011;9707;49.158;8.632;2023-12-28T05:17:19;3.10;;;2.22;;
19149;SDS011;9707;49.158;8.632;2023-12-28T05:19:44;4.40;;;2.40;;
19149;SDS011;9707;49.158;8.632;2023-12-28T05:22:09;2.92;;;1.85;;
19149;SDS011;9707;49.158;8.632;2023-12-28T05:24:36;3.45;;;2.20;;
19149;SDS011;9707;49.158;8.632;2023-12-28T05:27:01;2.85;;;2.00;;
19149;SDS011;9707;49.158;8.632;2023-12-28T05:29:26;2.35;;;1.67;;
19149;SDS011;9707;49.158;8.632;2023-12-28T05:31:52;3.15;;;2.00;;
19149;SDS011;9707;49.158;8.632;2023-12-28T05:34:17;3.22;;;1.98;;
19149;SDS011;9707;49.158;8.632;2023-12-28T05:36:42;3.25;;;1.85;;
19149;SDS011;9707;49.158;8.632;2023-12-28T05:39:10;2.60;;;2.10;;
19149;SDS011;9707;49.158;8.632;2023-12-28T05:41:38;6.97;;;2.30;;
19149;SDS011;9707;49.158;8.632;2023-12-28T05:44:03;3.10;;;1.80;;
19149;SDS011;9707;49.158;8.632;2023-12-28T05:46:28;4.47;;;2.10;;
19149;SDS011;9707;49.158;8.632;2023-12-28T05:48:54;2.42;;;1.88;;
19149;SDS011;9707;49.158;8.632;2023-12-28T05:51:19;3.25;;;1.88;;
19149;SDS011;9707;49.158;8.632;2023-12-28T05:53:44;3.78;;;2.00;;
19149;SDS011;9707;49.158;8.632;2023-12-28T05:56:09;2.55;;;1.55;;
19149;SDS011;9707;49.158;8.632;2023-12-28T05:58:35;4.50;;;1.88;;
19149;SDS011;9707;49.158;8.632;2023-12-28T06:01:01;2.42;;;1.80;;
19149;SDS011;9707;49.158;8.632;2023-12-28T06:03:28;2.08;;;1.60;;
19149;SDS011;9707;49.158;8.632;2023-12-28T06:05:55;1.85;;;1.65;;
19149;SDS011;9707;49.158;8.632;2023-12-28T06:08:20;2.90;;;1.70;;
19149;SDS011;9707;49.158;8.632;2023-12-28T06:10:45;3.25;;;1.58;;
19149;SDS011;9707;49.158;8.632;2023-12-28T06:13:11;3.75;;;1.65;;
19149;SDS011;9707;49.158;8.632;2023-12-28T06:15:36;2.53;;;1.70;;
19149;SDS011;9707;49.158;8.632;2023-12-28T06:18:01;3.15;;;1.40;;
19149;SDS011;9707;49.158;8.632;2023-12-28T06:20:27;6.20;;;2.17;;
19149;SDS011;9707;49.158;8.632;2023-12-28T06:22:53;2.13;;;1.60;;
19149;SDS011;9707;49.158;8.632;2023-12-28T06:25:18;3.70;;;1.75;;
19149;SDS011;9707;49.158;8.632;2023-12-28T06:27:43;3.13;;;1.40;;
19149;SDS011;9707;49.158;8.632;2023-12-28T06:30:09;3.40;;;1.50;;
19149;SDS011;9707;49.158;8.632;2023-12-28T06:32:34;2.75;;;1.30;;
19149;SDS011;9707;49.158;8.632;2023-12-28T06:34:59;3.22;;;1.58;;
19149;SDS011;9707;49.158;8.632;2023-12-28T06:37:25;2.30;;;1.48;;
19149;SDS011;9707;49.158;8.632;2023-12-28T06:39:50;2.75;;;1.63;;
19149;SDS011;9707;49.158;8.632;2023-12-28T06:42:16;3.47;;;1.90;;
19149;SDS011;9707;49.158;8.632;2023-12-28T06:44:41;2.33;;;1.83;;
19149;SDS011;9707;49.158;8.632;2023-12-28T06:47:06;2.17;;;1.63;;
19149;SDS011;9707;49.158;8.632;2023-12-28T06:49:31;3.33;;;1.90;;
19149;SDS011;9707;49.158;8.632;2023-12-28T06:51:57;2.92;;;1.40;;
19149;SDS011;9707;49.158;8.632;2023-12-28T06:54:22;3.20;;;1.40;;
19149;SDS011;9707;49.158;8.632;2023-12-28T06:56:47;3.17;;;1.50;;
19149;SDS011;9707;49.158;8.632;2023-12-28T06:59:13;3.22;;;1.40;;
19149;SDS011;9707;49.158;8.632;2023-12-28T07:01:39;2.35;;;1.63;;
19149;SDS011;9707;49.158;8.632;2023-12-28T07:04:05;3.67;;;2.17;;
19149;SDS011;9707;49.158;8.632;2023-12-28T07:06:30;2.13;;;1.40;;
19149;SDS011;9707;49.158;8.632;2023-12-28T07:08:55;2.70;;;1.67;;
19149;SDS011;9707;49.158;8.632;2023-12-28T07:11:20;4.22;;;1.45;;
19149;SDS011;9707;49.158;8.632;2023-12-28T07:13:46;4.80;;;2.15;;
19149;SDS011;9707;49.158;8.632;2023-12-28T07:16:12;2.42;;;1.70;;
19149;SDS011;9707;49.158;8.632;2023-12-28T07:18:37;2.65;;;1.80;;
19149;SDS011;9707;49.158;8.632;2023-12-28T07:21:03;2.90;;;1.75;;
19149;SDS011;9707;49.158;8.632;2023-12-28T07:23:28;2.35;;;1.73;;
19149;SDS011;9707;49.158;8.632;2023-12-28T07:25:53;2.38;;;1.30;;
19149;SDS011;9707;49.158;8.632;2023-12-28T07:28:19;3.50;;;2.10;;
19149;SDS011;9707;49.158;8.632;2023-12-28T07:30:44;3.05;;;1.50;;
19149;SDS011;9707;49.158;8.632;2023-12-28T07:33:09;2.70;;;1.75;;
19149;SDS011;9707;49.158;8.632;2023-12-28T07:35:34;1.77;;;1.33;;
19149;SDS011;9707;49.158;8.632;2023-12-28T07:38:00;3.15;;;1.60;;
19149;SDS011;9707;49.158;8.632;2023-12-28T07:40:25;2.50;;;1.45;;
19149;SDS011;9707;49.158;8.632;2023-12-28T07:42:50;1.85;;;1.42;;
19149;SDS011;9707;49.158;8.632;2023-12-28T07:45:16;1.90;;;1.50;;
19149;SDS011;9707;49.158;8.632;2023-12-28T07:47:42;2.05;;;1.23;;
19149;SDS011;9707;49.158;8.632;2023-12-28T07:50:07;1.98;;;1.33;;
19149;SDS011;9707;49.158;8.632;2023-12-28T07:52:33;1.67;;;1.40;;
19149;SDS011;9707;49.158;8.632;2023-12-28T07:54:58;3.28;;;1.90;;
19149;SDS011;9707;49.158;8.632;2023-12-28T07:57:24;2.72;;;1.55;;
19149;SDS011;9707;49.158;8.632;2023-12-28T07:59:49;2.20;;;1.40;;
19149;SDS011;9707;49.158;8.632;2023-12-28T08:02:14;2.45;;;1.70;;
19149;SDS011;9707;49.158;8.632;2023-12-28T08:04:40;2.40;;;1.40;;
19149;SDS011;9707;49.158;8.632;2023-12-28T08:07:05;2.83;;;1.30;;
19149;SDS011;9707;49.158;8.632;2023-12-28T08:09:32;2.20;;;1.38;;
19149;SDS011;9707;49.158;8.632;2023-12-28T08:11:57;5.13;;;1.90;;
19149;SDS011;9707;49.158;8.632;2023-12-28T08:14:22;4.47;;;2.05;;
19149;SDS011;9707;49.158;8.632;2023-12-28T08:16:47;2.75;;;1.60;;
19149;SDS011;9707;49.158;8.632;2023-12-28T08:19:13;4.25;;;1.80;;
19149;SDS011;9707;49.158;8.632;2023-12-28T08:21:38;2.50;;;1.55;;
19149;SDS011;9707;49.158;8.632;2023-12-28T08:24:03;3.75;;;1.80;;
19149;SDS011;9707;49.158;8.632;2023-12-28T08:26:29;2.33;;;1.50;;
19149;SDS011;9707;49.158;8.632;2023-12-28T08:28:54;2.03;;;1.35;;
19149;SDS011;9707;49.158;8.632;2023-12-28T08:31:20;3.20;;;1.45;;
19149;SDS011;9707;49.158;8.632;2023-12-28T08:33:46;2.83;;;1.75;;
19149;SDS011;9707;49.158;8.632;2023-12-28T08:36:11;3.78;;;1.30;;
19149;SDS011;9707;49.158;8.632;2023-12-28T08:38:37;2.78;;;1.70;;
19149;SDS011;9707;49.158;8.632;2023-12-28T08:41:02;3.72;;;1.83;;
19149;SDS011;9707;49.158;8.632;2023-12-28T08:43:28;2.40;;;1.75;;
19149;SDS011;9707;49.158;8.632;2023-12-28T08:45:54;2.10;;;1.42;;
19149;SDS011;9707;49.158;8.632;2023-12-28T08:48:20;2.95;;;1.80;;
19149;SDS011;9707;49.158;8.632;2023-12-28T08:50:45;2.45;;;1.52;;
19149;SDS011;9707;49.158;8.632;2023-12-28T08:53:10;3.00;;;1.45;;
19149;SDS011;9707;49.158;8.632;2023-12-28T08:55:35;4.15;;;1.60;;
19149;SDS011;9707;49.158;8.632;2023-12-28T08:58:01;3.85;;;2.28;;
19149;SDS011;9707;49.158;8.632;2023-12-28T09:00:26;3.88;;;1.70;;
19149;SDS011;9707;49.158;8.632;2023-12-28T09:02:52;4.32;;;1.88;;
19149;SDS011;9707;49.158;8.632;2023-12-28T09:05:17;3.40;;;1.90;;
19149;SDS011;9707;49.158;8.632;2023-12-28T09:07:42;2.47;;;1.88;;
19149;SDS011;9707;49.158;8.632;2023-12-28T09:10:09;2.30;;;1.65;;
19149;SDS011;9707;49.158;8.632;2023-12-28T09:12:35;3.60;;;2.53;;
19149;SDS011;9707;49.158;8.632;2023-12-28T09:15:00;3.67;;;1.70;;
19149;SDS011;9707;49.158;8.632;2023-12-28T09:17:26;4.20;;;2.10;;
19149;SDS011;9707;49.158;8.632;2023-12-28T09:19:51;3.50;;;2.10;;
19149;SDS011;9707;49.158;8.632;2023-12-28T09:22:16;4.50;;;1.80;;
19149;SDS011;9707;49.158;8.632;2023-12-28T09:24:41;5.47;;;1.98;;
19149;SDS011;9707;49.158;8.632;2023-12-28T09:27:07;2.15;;;1.50;;
19149;SDS011;9707;49.158;8.632;2023-12-28T09:29:32;3.28;;;1.33;;
19149;SDS011;9707;49.158;8.632;2023-12-28T09:31:59;1.95;;;1.40;;
19149;SDS011;9707;49.158;8.632;2023-12-28T09:34:24;2.13;;;1.48;;
19149;SDS011;9707;49.158;8.632;2023-12-28T09:36:49;2.33;;;1.60;;
19149;SDS011;9707;49.158;8.632;2023-12-28T09:39:14;3.05;;;1.90;;
19149;SDS011;9707;49.158;8.632;2023-12-28T09:41:41;4.28;;;1.80;;
19149;SDS011;9707;49.158;8.632;2023-12-28T09:44:12;2.55;;;1.80;;
19149;SDS011;9707;49.158;8.632;2023-12-28T09:46:42;2.63;;;1.55;;
19149;SDS011;9707;49.158;8.632;2023-12-28T09:49:08;2.45;;;1.52;;
19149;SDS011;9707;49.158;8.632;2023-12-28T09:51:34;2.95;;;1.70;;
19149;SDS011;9707;49.158;8.632;2023-12-28T09:53:59;3.50;;;1.40;;
19149;SDS011;9707;49.158;8.632;2023-12-28T09:56:27;2.58;;;1.75;;
19149;SDS011;9707;49.158;8.632;2023-12-28T09:58:52;2.40;;;1.35;;
19149;SDS011;9707;49.158;8.632;2023-12-28T10:01:18;4.45;;;1.70;;
19149;SDS011;9707;49.158;8.632;2023-12-28T10:03:44;3.15;;;1.80;;
19149;SDS011;9707;49.158;8.632;2023-12-28T10:06:10;2.92;;;2.00;;
19149;SDS011;9707;49.158;8.632;2023-12-28T10:08:35;3.15;;;1.85;;
19149;SDS011;9707;49.158;8.632;2023-12-28T10:11:01;3.75;;;2.42;;
19149;SDS011;9707;49.158;8.632;2023-12-28T10:13:27;4.60;;;2.42;;
19149;SDS011;9707;49.158;8.632;2023-12-28T10:15:56;2.75;;;1.92;;
19149;SDS011;9707;49.158;8.632;2023-12-28T10:18:22;3.85;;;2.35;;
19149;SDS011;9707;49.158;8.632;2023-12-28T10:20:51;3.38;;;1.60;;
19149;SDS011;9707;49.158;8.632;2023-12-28T10:23:18;3.60;;;2.00;;
19149;SDS011;9707;49.158;8.632;2023-12-28T10:25:46;3.47;;;1.67;;
19149;SDS011;9707;49.158;8.632;2023-12-28T10:28:13;3.03;;;1.98;;
19149;SDS011;9707;49.158;8.632;2023-12-28T10:30:38;2.30;;;1.70;;
19149;SDS011;9707;49.158;8.632;2023-12-28T10:33:06;3.45;;;2.00;;
19149;SDS011;9707;49.158;8.632;2023-12-28T10:35:31;4.28;;;2.17;;
19149;SDS011;9707;49.158;8.632;2023-12-28T10:37:57;4.88;;;2.40;;
19149;SDS011;9707;49.158;8.632;2023-12-28T10:40:24;2.28;;;1.90;;
19149;SDS011;9707;49.158;8.632;2023-12-28T10:42:51;3.13;;;1.95;;
19149;SDS011;9707;49.158;8.632;2023-12-28T10:45:19;4.65;;;1.90;;
19149;SDS011;9707;49.158;8.632;2023-12-28T10:47:51;2.20;;;1.63;;
19149;SDS011;9707;49.158;8.632;2023-12-28T10:50:22;4.25;;;1.88;;
19149;SDS011;9707;49.158;8.632;2023-12-28T10:52:52;3.50;;;2.20;;
19149;SDS011;9707;49.158;8.632;2023-12-28T10:55:33;3.45;;;2.25;;
19149;SDS011;9707;49.158;8.632;2023-12-28T10:58:11;5.70;;;2.38;;
19149;SDS011;9707;49.158;8.632;2023-12-28T11:00:46;4.85;;;2.72;;
19149;SDS011;9707;49.158;8.632;2023-12-28T11:03:18;5.50;;;2.55;;
19149;SDS011;9707;49.158;8.632;2023-12-28T11:05:51;2.70;;;2.17;;
19149;SDS011;9707;49.158;8.632;2023-12-28T11:08:17;3.60;;;2.08;;
19149;SDS011;9707;49.158;8.632;2023-12-28T11:10:44;3.10;;;1.85;;
19149;SDS011;9707;49.158;8.632;2023-12-28T11:13:10;4.80;;;2.10;;
19149;SDS011;9707;49.158;8.632;2023-12-28T11:15:37;4.20;;;2.03;;
19149;SDS011;9707;49.158;8.632;2023-12-28T11:18:03;4.63;;;1.95;;
19149;SDS011;9707;49.158;8.632;2023-12-28T11:20:28;3.58;;;2.22;;
19149;SDS011;9707;49.158;8.632;2023-12-28T11:22:54;3.80;;;2.63;;
19149;SDS011;9707;49.158;8.632;2023-12-28T11:25:21;5.18;;;2.20;;
19149;SDS011;9707;49.158;8.632;2023-12-28T11:27:47;5.47;;;2.30;;
19149;SDS011;9707;49.158;8.632;2023-12-28T11:30:12;2.83;;;1.80;;
19149;SDS011;9707;49.158;8.632;2023-12-28T11:32:40;3.65;;;2.05;;
19149;SDS011;9707;49.158;8.632;2023-12-28T11:35:07;5.05;;;2.45;;
19149;SDS011;9707;49.158;8.632;2023-12-28T11:37:36;3.63;;;2.03;;
19149;SDS011;9707;49.158;8.632;2023-12-28T11:40:10;4.13;;;1.80;;
19149;SDS011;9707;49.158;8.632;2023-12-28T11:42:36;5.25;;;2.47;;
19149;SDS011;9707;49.158;8.632;2023-12-28T11:45:16;3.05;;;1.67;;
19149;SDS011;9707;49.158;8.632;2023-12-28T11:47:45;3.92;;;1.90;;
19149;SDS011;9707;49.158;8.632;2023-12-28T11:50:10;3.20;;;1.88;;
19149;SDS011;9707;49.158;8.632;2023-12-28T11:52:37;3.63;;;1.80;;
19149;SDS011;9707;49.158;8.632;2023-12-28T11:55:02;3.03;;;2.00;;
19149;SDS011;9707;49.158;8.632;2023-12-28T11:57:29;2.85;;;1.90;;
19149;SDS011;9707;49.158;8.632;2023-12-28T11:59:58;3.33;;;1.80;;
19149;SDS011;9707;49.158;8.632;2023-12-28T12:02:24;3.10;;;1.67;;
19149;SDS011;9707;49.158;8.632;2023-12-28T12:04:51;4.07;;;1.90;;
19149;SDS011;9707;49.158;8.632;2023-12-28T12:07:17;2.83;;;1.60;;
19149;SDS011;9707;49.158;8.632;2023-12-28T12:09:42;3.28;;;2.22;;
19149;SDS011;9707;49.158;8.632;2023-12-28T12:12:08;3.47;;;2.10;;
19149;SDS011;9707;49.158;8.632;2023-12-28T12:14:33;4.03;;;2.60;;
19149;SDS011;9707;49.158;8.632;2023-12-28T12:16:59;2.35;;;1.70;;
19149;SDS011;9707;49.158;8.632;2023-12-28T12:19:25;3.95;;;2.15;;
19149;SDS011;9707;49.158;8.632;2023-12-28T12:21:54;2.67;;;1.98;;
19149;SDS011;9707;49.158;8.632;2023-12-28T12:24:21;3.20;;;1.83;;
19149;SDS011;9707;49.158;8.632;2023-12-28T12:26:48;2.20;;;1.40;;
19149;SDS011;9707;49.158;8.632;2023-12-28T12:29:14;3.55;;;1.67;;
19149;SDS011;9707;49.158;8.632;2023-12-28T12:31:40;3.25;;;1.50;;
19149;SDS011;9707;49.158;8.632;2023-12-28T12:34:07;1.63;;;1.25;;
19149;SDS011;9707;49.158;8.632;2023-12-28T12:36:33;2.78;;;1.70;;
19149;SDS011;9707;49.158;8.632;2023-12-28T12:38:59;3.25;;;1.30;;
19149;SDS011;9707;49.158;8.632;2023-12-28T12:41:24;2.40;;;1.42;;
19149;SDS011;9707;49.158;8.632;2023-12-28T12:43:51;5.57;;;2.22;;
19149;SDS011;9707;49.158;8.632;2023-12-28T12:46:16;2.75;;;1.30;;
19149;SDS011;9707;49.158;8.632;2023-12-28T12:48:41;3.92;;;1.70;;
19149;SDS011;9707;49.158;8.632;2023-12-28T12:51:07;2.75;;;1.83;;
19149;SDS011;9707;49.158;8.632;2023-12-28T12:53:33;2.85;;;1.65;;
19149;SDS011;9707;49.158;8.632;2023-12-28T12:55:59;4.78;;;2.38;;
19149;SDS011;9707;49.158;8.632;2023-12-28T12:58:25;2.95;;;2.10;;
19149;SDS011;9707;49.158;8.632;2023-12-28T13:00:52;2.58;;;1.77;;
19149;SDS011;9707;49.158;8.632;2023-12-28T13:03:17;2.97;;;1.58;;
19149;SDS011;9707;49.158;8.632;2023-12-28T13:05:44;2.60;;;1.77;;
19149;SDS011;9707;49.158;8.632;2023-12-28T13:08:10;3.55;;;2.17;;
19149;SDS011;9707;49.158;8.632;2023-12-28T13:10:35;3.50;;;2.05;;
19149;SDS011;9707;49.158;8.632;2023-12-28T13:13:01;3.05;;;2.28;;
19149;SDS011;9707;49.158;8.632;2023-12-28T13:15:26;3.80;;;2.03;;
19149;SDS011;9707;49.158;8.632;2023-12-28T13:17:51;3.88;;;2.15;;
19149;SDS011;9707;49.158;8.632;2023-12-28T13:20:18;4.35;;;2.03;;
19149;SDS011;9707;49.158;8.632;2023-12-28T13:22:43;3.45;;;1.77;;
19149;SDS011;9707;49.158;8.632;2023-12-28T13:25:08;3.00;;;2.17;;
19149;SDS011;9707;49.158;8.632;2023-12-28T13:27:34;4.18;;;1.90;;
19149;SDS011;9707;49.158;8.632;2023-12-28T13:29:59;3.17;;;1.90;;
19149;SDS011;9707;49.158;8.632;2023-12-28T13:32:24;5.18;;;2.20;;
19149;SDS011;9707;49.158;8.632;2023-12-28T13:34:50;3.67;;;2.05;;
19149;SDS011;9707;49.158;8.632;2023-12-28T13:37:18;4.07;;;2.05;;
19149;SDS011;9707;49.158;8.632;2023-12-28T13:39:44;4.05;;;2.10;;
19149;SDS011;9707;49.158;8.632;2023-12-28T13:42:09;1.73;;;1.55;;
19149;SDS011;9707;49.158;8.632;2023-12-28T13:44:35;4.43;;;2.40;;
19149;SDS011;9707;49.158;8.632;2023-12-28T13:47:01;3.85;;;2.30;;
19149;SDS011;9707;49.158;8.632;2023-12-28T13:49:26;3.90;;;2.08;;
19149;SDS011;9707;49.158;8.632;2023-12-28T13:51:52;4.28;;;2.20;;
19149;SDS011;9707;49.158;8.632;2023-12-28T13:54:17;4.20;;;2.65;;
19149;SDS011;9707;49.158;8.632;2023-12-28T13:56:44;3.83;;;2.20;;
19149;SDS011;9707;49.158;8.632;2023-12-28T13:59:10;3.80;;;2.00;;
19149;SDS011;9707;49.158;8.632;2023-12-28T14:01:36;2.80;;;2.42;;
19149;SDS011;9707;49.158;8.632;2023-12-28T14:04:01;4.90;;;2.47;;
19149;SDS011;9707;49.158;8.632;2023-12-28T14:06:28;3.38;;;2.20;;
19149;SDS011;9707;49.158;8.632;2023-12-28T14:08:53;3.80;;;2.28;;
19149;SDS011;9707;49.158;8.632;2023-12-28T14:11:19;2.75;;;2.10;;
19149;SDS011;9707;49.158;8.632;2023-12-28T14:13:44;3.67;;;1.90;;
19149;SDS011;9707;49.158;8.632;2023-12-28T14:16:09;4.28;;;2.03;;
19149;SDS011;9707;49.158;8.632;2023-12-28T14:18:34;4.47;;;2.00;;
19149;SDS011;9707;49.158;8.632;2023-12-28T14:21:00;6.88;;;4.75;;
19149;SDS011;9707;49.158;8.632;2023-12-28T14:23:25;3.65;;;1.83;;
19149;SDS011;9707;49.158;8.632;2023-12-28T14:25:51;4.72;;;2.10;;
19149;SDS011;9707;49.158;8.632;2023-12-28T14:28:19;3.25;;;1.88;;
19149;SDS011;9707;49.158;8.632;2023-12-28T14:30:45;3.97;;;1.80;;
19149;SDS011;9707;49.158;8.632;2023-12-28T14:33:11;3.20;;;1.63;;
19149;SDS011;9707;49.158;8.632;2023-12-28T14:35:36;2.47;;;1.80;;
19149;SDS011;9707;49.158;8.632;2023-12-28T14:38:04;2.45;;;1.58;;
19149;SDS011;9707;49.158;8.632;2023-12-28T14:40:30;2.25;;;1.65;;
19149;SDS011;9707;49.158;8.632;2023-12-28T14:42:55;3.30;;;1.83;;
19149;SDS011;9707;49.158;8.632;2023-12-28T14:45:21;4.45;;;1.90;;
19149;SDS011;9707;49.158;8.632;2023-12-28T14:47:46;1.77;;;1.60;;
19149;SDS011;9707;49.158;8.632;2023-12-28T14:50:11;4.78;;;2.30;;
19149;SDS011;9707;49.158;8.632;2023-12-28T14:52:36;4.20;;;2.10;;
19149;SDS011;9707;49.158;8.632;2023-12-28T14:55:07;3.53;;;2.03;;
19149;SDS011;9707;49.158;8.632;2023-12-28T14:57:32;2.45;;;1.73;;